Main page
METAR-TAF:

METAR-TAF

Airports :

Tuscola Area Airport

Caro, Michigan, United States

latitude: 43-27-31N, longitude: 083-26-43W, elevation: 702 ft

Current weather observation

The report was made 17 minutes ago, at 18:55 UTC
Wind 13 mph from the North
Temperature 41°F
Humidity 65%
Pressure 30.26 in. Hg
Visibility: 10 miles
Clear sky

METAR: KCFS 241855Z AUTO 36011KT 10SM CLR 05/M01 A3026 RMK AO2 T00451012

Time: 15:12 (19:12 UTC)


TAF: missing

Weather observations and forecasts of more than 4000 airports (METAR and TAF reports).

The available stations are represented by yellow and red dots on the map.

Hover mouse over dot to see the name of the station.

Then click to see weather observations and forecasts.

To change the map : click on the green buttons with a black cross to zoom in, on the green button with a dash to zoom out, or on the green arrows for adjacent maps.


METAR-TAF: